Time;durP1;ratioP1;P1;durP2;ratioP2;P2;SDS_P1;SDS_P2;PMS_P1;PMS_P2;Temp;Humidity;BMP_temperature;BMP_pressure;BME280_temperature;BME280_humidity;BME280_pressure;Samples;Min_cycle;Max_cycle;Signal;HPM_P1;HPM_P2
2023/06/28 00:03:21;;;;;;;4.45;3.30;;;18.30;94.90;;;19.33;58.42;98045.41;10436743;28;20608;-65
2023/06/28 00:08:26;;;;;;;3.17;2.88;;;18.30;95.70;;;19.32;58.42;98051.44;10439978;28;20252;-66
2023/06/28 00:13:30;;;;;;;3.88;3.42;;;18.20;95.90;;;19.22;58.84;98061.53;10441920;28;20594;-66
2023/06/28 00:18:34;;;;;;;3.47;3.17;;;18.20;96.30;;;19.19;59.13;98062.31;10435156;28;20236;-66
2023/06/28 00:23:39;;;;;;;3.22;2.95;;;18.20;96.10;;;19.14;59.92;98069.09;10421536;28;20616;-68
2023/06/28 00:28:42;;;;;;;3.55;2.92;;;18.20;96.50;;;19.05;60.26;98074.91;10439088;28;20233;-65
2023/06/28 00:33:45;;;;;;;3.78;3.10;;;18.20;96.60;;;18.87;59.71;98080.47;10434218;28;20232;-66
2023/06/28 00:38:50;;;;;;;4.30;3.47;;;18.00;96.60;;;18.79;62.93;98102.69;10439270;28;20252;-67
2023/06/28 00:43:53;;;;;;;4.53;3.60;;;18.00;98.20;;;18.57;67.83;98110.63;10433894;28;20229;-65
2023/06/28 00:48:56;;;;;;;5.00;3.63;;;17.90;99.90;;;18.24;70.33;98111.38;10431767;28;20234;-69
2023/06/28 00:54:01;;;;;;;4.45;3.88;;;17.60;99.90;;;18.16;70.60;98112.84;10438444;28;20224;-66
2023/06/28 00:59:04;;;;;;;4.55;4.15;;;17.40;99.90;;;18.07;71.82;98117.72;10429999;28;20221;-66
2023/06/28 01:04:07;;;;;;;4.25;3.80;;;17.40;99.90;;;18.09;73.98;98114.38;10436800;28;20228;-68
2023/06/28 01:09:12;;;;;;;4.75;3.65;;;17.40;99.90;;;18.09;73.52;98126.44;10432655;28;20233;-66
2023/06/28 01:14:16;;;;;;;4.43;3.47;;;17.40;99.90;;;18.14;75.18;98130.00;10434909;28;20603;-69
2023/06/28 01:19:19;;;;;;;3.90;3.60;;;17.40;99.90;;;18.22;74.63;98134.59;10425182;28;20247;-66
2023/06/28 01:24:24;;;;;;;4.03;3.60;;;17.50;99.90;;;18.19;74.52;98138.81;10430874;28;20235;-65
2023/06/28 01:29:27;;;;;;;5.40;4.10;;;17.50;99.90;;;18.17;76.84;98131.00;10436434;28;20283;-70
2023/06/28 01:34:30;;;;;;;4.25;3.85;;;17.40;99.90;;;18.15;75.07;98131.78;10428833;28;20227;-67
2023/06/28 01:39:35;;;;;;;4.18;3.80;;;17.30;99.90;;;18.12;75.02;98134.28;10423328;28;20230;-67
2023/06/28 01:44:38;;;;;;;5.00;4.13;;;17.30;99.90;;;17.93;75.44;98135.38;10432507;28;20224;-66
2023/06/28 01:49:42;;;;;;;5.30;4.05;;;17.10;99.90;;;17.72;76.65;98145.88;10431374;28;20232;-66
2023/06/28 01:54:46;;;;;;;5.13;4.00;;;16.90;99.90;;;17.60;77.50;98129.94;10439245;28;20228;-65
2023/06/28 01:59:49;;;;;;;4.47;4.07;;;16.80;99.90;;;17.48;77.99;98126.13;10429184;28;20236;-65
2023/06/28 02:04:52;;;;;;;4.22;3.83;;;16.70;99.90;;;17.36;81.47;98127.41;10451068;23;20213;-66
2023/06/28 02:09:57;;;;;;;5.43;4.65;;;16.60;99.90;;;17.19;82.12;98127.69;10357880;28;20230;-65
2023/06/28 02:15:02;;;;;;;4.43;4.13;;;16.50;99.90;;;17.26;84.58;98131.38;10362031;28;20701;-65
2023/06/28 02:20:10;;;;;;;4.28;3.90;;;16.50;99.90;;;17.13;81.89;98127.47;10357022;28;20233;-65
2023/06/28 02:25:14;;;;;;;4.35;3.95;;;16.40;99.90;;;17.19;83.23;98127.69;10358565;28;20230;-65
2023/06/28 02:30:18;;;;;;;6.30;4.65;;;16.40;99.90;;;17.19;83.89;98126.81;10354848;28;20234;-65
2023/06/28 02:35:21;;;;;;;4.70;4.30;;;16.40;99.90;;;17.17;83.64;98120.69;10360320;28;20777;-65
2023/06/28 02:40:26;;;;;;;4.68;4.38;;;16.40;99.90;;;17.11;83.32;98113.63;10354493;28;20226;-65
2023/06/28 02:45:29;;;;;;;5.28;4.10;;;16.30;99.90;;;17.10;84.01;98120.50;10360955;28;20242;-64
2023/06/28 02:50:32;;;;;;;4.47;3.83;;;16.30;99.90;;;17.14;83.62;98130.94;10362370;28;20233;-67
2023/06/28 02:55:36;;;;;;;4.70;4.18;;;16.30;99.90;;;17.25;84.11;98120.16;10364271;28;20230;-64
2023/06/28 03:00:41;;;;;;;4.57;4.18;;;16.40;99.90;;;17.13;82.87;98111.09;10363443;28;20222;-64
2023/06/28 03:05:44;;;;;;;5.30;4.05;;;16.30;99.90;;;17.14;82.57;98112.84;10361347;28;20264;-64
2023/06/28 03:10:49;;;;;;;4.95;4.00;;;16.30;99.90;;;17.19;82.53;98107.03;10362759;28;20235;-64
2023/06/28 03:15:52;;;;;;;4.38;3.83;;;16.30;99.90;;;17.11;81.42;98109.34;10361361;28;20247;-64
2023/06/28 03:20:55;;;;;;;4.28;3.88;;;16.20;99.90;;;17.05;82.05;98110.81;10357828;28;20226;-65
2023/06/28 03:26:00;;;;;;;4.53;3.97;;;16.20;99.90;;;17.13;81.89;98100.78;10363101;28;20605;-64
2023/06/28 03:31:03;;;;;;;4.72;4.18;;;16.20;99.90;;;17.12;82.21;98099.91;10362292;28;20233;-66
2023/06/28 03:36:06;;;;;;;5.32;4.25;;;16.20;99.90;;;17.07;82.85;98106.59;10358834;28;20230;-65
2023/06/28 03:41:13;;;;;;;4.45;3.70;;;16.10;99.90;;;17.09;83.33;98111.00;10362346;28;20249;-65
2023/06/28 03:46:16;;;;;;;6.82;4.22;;;16.10;99.90;;;17.05;82.71;98100.50;10353817;28;20237;-65
2023/06/28 03:51:19;;;;;;;4.10;3.70;;;16.10;99.90;;;17.10;82.19;98105.00;10354533;28;20729;-65
2023/06/28 03:56:23;;;;;;;3.83;3.53;;;16.20;99.90;;;17.13;81.10;98104.22;10362422;28;20234;-64
2023/06/28 04:01:26;;;;;;;6.57;4.35;;;16.20;99.90;;;17.22;80.18;98101.09;10357122;28;20222;-65
2023/06/28 04:06:30;;;;;;;6.53;4.22;;;16.30;99.90;;;17.27;80.50;98113.34;10348525;28;20242;-65
2023/06/28 04:11:34;;;;;;;5.03;4.50;;;16.30;99.90;;;17.25;82.62;98111.53;10355989;28;20230;-64
2023/06/28 04:16:37;;;;;;;4.53;4.13;;;16.40;99.90;;;17.31;83.70;98109.16;10353980;28;20226;-64
2023/06/28 04:21:40;;;;;;;5.60;4.20;;;16.40;99.90;;;17.41;81.97;98112.94;10355146;28;20630;-64
2023/06/28 04:26:45;;;;;;;5.28;4.60;;;16.40;99.90;;;17.39;82.26;98119.75;10349274;28;20237;-65
2023/06/28 04:31:48;;;;;;;4.82;4.30;;;16.40;99.90;;;17.41;81.47;98118.97;10361523;28;20230;-66
2023/06/28 04:36:52;;;;;;;4.45;4.15;;;16.30;99.90;;;17.40;81.83;98125.00;10354226;28;20232;-64
2023/06/28 04:42:16;;;;;;;4.65;3.80;;;16.40;99.90;;;17.29;79.53;98116.88;10349314;28;20280;-65
2023/06/28 04:47:19;;;;;;;4.28;3.58;;;16.30;99.90;;;17.33;79.40;98123.00;10356122;28;20245;-64
2023/06/28 04:52:23;;;;;;;4.28;3.40;;;16.40;99.90;;;17.43;78.42;98114.75;10356615;28;20286;-66
2023/06/28 04:57:27;;;;;;;4.03;3.63;;;16.50;99.90;;;17.52;78.68;98122.81;10356335;28;20249;-65
2023/06/28 05:02:31;;;;;;;4.38;3.60;;;16.60;99.90;;;17.59;78.91;98117.84;10354855;28;20226;-65
2023/06/28 05:07:35;;;;;;;4.15;3.75;;;16.70;99.90;;;17.67;79.63;98121.56;10345841;28;20230;-65
2023/06/28 05:12:40;;;;;;;4.72;4.00;;;16.70;99.90;;;17.69;78.12;98110.47;10358820;28;20237;-65
2023/06/28 05:17:44;;;;;;;4.03;3.47;;;16.70;99.90;;;17.78;75.56;98115.09;10358762;28;20222;-64
2023/06/28 05:22:49;;;;;;;6.22;4.25;;;16.80;99.90;;;17.87;75.52;98112.78;10351792;28;20222;-66
2023/06/28 05:27:53;;;;;;;5.05;4.50;;;16.90;99.90;;;17.92;76.60;98113.81;10358083;28;20238;-65
2023/06/28 05:32:58;;;;;;;4.97;4.47;;;16.90;99.90;;;18.12;77.45;98122.22;10349852;28;20633;-64
2023/06/28 05:38:03;;;;;;;3.88;3.58;;;16.90;99.90;;;17.99;76.18;98120.94;10348910;28;20575;-64
2023/06/28 05:43:07;;;;;;;5.40;4.07;;;16.90;99.90;;;17.94;76.58;98122.53;10355780;28;20226;-65
2023/06/28 05:48:11;;;;;;;5.43;3.97;;;16.90;99.90;;;17.95;77.51;98123.41;10354944;28;20234;-66
2023/06/28 05:53:14;;;;;;;7.07;4.13;;;16.90;99.90;;;18.02;76.96;98121.03;10353086;28;20313;-65
2023/06/28 05:58:19;;;;;;;6.55;4.43;;;17.00;99.90;;;18.09;76.92;98122.13;10352934;28;20717;-66
2023/06/28 06:03:23;;;;;;;5.18;4.20;;;17.00;99.90;;;18.09;76.14;98126.44;10353280;28;20235;-65
2023/06/28 06:08:26;;;;;;;5.28;4.28;;;17.10;99.90;;;18.11;75.83;98124.75;10350632;28;20233;-65
2023/06/28 06:13:30;;;;;;;8.23;5.25;;;17.10;99.90;;;18.11;76.12;98124.75;10359473;28;20436;-65
2023/06/28 06:18:36;;;;;;;5.45;4.70;;;17.10;99.90;;;18.21;77.21;98126.81;10362088;28;20226;-66
2023/06/28 06:23:39;;;;;;;5.30;4.90;;;17.20;99.90;;;18.23;75.93;98128.63;10360937;28;20230;-65
2023/06/28 06:28:43;;;;;;;5.78;4.68;;;17.30;99.90;;;18.19;75.51;98128.47;10367310;28;20782;-65
2023/06/28 06:33:46;;;;;;;5.57;4.60;;;17.30;99.90;;;18.38;74.37;98124.75;10369060;28;20694;-66
2023/06/28 06:38:49;;;;;;;5.38;4.55;;;17.40;99.90;;;18.49;72.87;98132.84;10358439;28;20261;-65
2023/06/28 06:43:54;;;;;;;5.30;4.22;;;17.50;99.90;;;18.36;71.85;98135.03;10362570;28;20718;-64
2023/06/28 06:48:57;;;;;;;6.75;4.18;;;17.40;99.90;;;18.48;71.72;98133.66;10360882;28;20864;-65
2023/06/28 06:54:01;;;;;;;4.57;3.88;;;17.50;99.90;;;18.57;70.17;98132.22;10357293;28;20234;-65
2023/06/28 06:59:06;;;;;;;5.43;3.78;;;17.50;99.90;;;18.65;70.76;98133.31;10363457;28;20222;-65
2023/06/28 07:04:09;;;;;;;4.65;4.22;;;17.70;99.90;;;18.72;69.57;98141.28;10364076;28;20226;-66
2023/06/28 07:09:12;;;;;;;4.80;3.75;;;17.80;99.90;;;18.67;69.69;98148.91;10350898;28;20237;-65
2023/06/28 07:14:16;;;;;;;5.15;3.90;;;17.70;99.90;;;18.80;69.06;98140.72;10349553;28;20234;-65
2023/06/28 07:19:19;;;;;;;5.78;3.88;;;17.90;99.90;;;19.00;68.41;98153.34;10356159;28;20254;-65
2023/06/28 07:24:23;;;;;;;3.75;3.38;;;18.10;99.90;;;19.27;66.96;98154.13;10358959;28;20230;-65
2023/06/28 07:29:27;;;;;;;4.68;4.20;;;18.30;99.90;;;19.36;65.82;98153.50;10356926;28;20790;-64
2023/06/28 07:34:31;;;;;;;4.05;3.60;;;18.40;99.90;;;19.46;64.67;98154.59;10353001;28;20237;-64
2023/06/28 07:39:34;;;;;;;3.53;3.20;;;18.50;99.90;;;19.63;62.45;98157.66;10356660;28;20226;-65
2023/06/28 07:44:39;;;;;;;4.25;3.30;;;18.70;99.90;;;19.80;62.25;98157.31;10353774;28;20224;-65
2023/06/28 07:49:42;;;;;;;3.75;3.13;;;18.80;99.90;;;19.96;61.61;98157.66;10346054;28;20223;-66
2023/06/28 07:54:45;;;;;;;4.90;3.63;;;18.90;99.90;;;20.25;60.66;98155.78;10353603;28;20229;-67
2023/06/28 07:59:49;;;;;;;4.00;3.55;;;19.30;99.90;;;20.45;60.91;98164.91;10355606;28;20336;-66
2023/06/28 08:04:55;;;;;;;4.28;3.38;;;19.60;99.90;;;20.81;58.91;98157.94;10358146;28;20236;-73
2023/06/28 08:09:58;;;;;;;5.20;3.67;;;19.80;99.80;;;20.90;58.12;98159.00;10356924;28;20233;-65
2023/06/28 08:15:03;;;;;;;4.78;3.67;;;19.90;99.40;;;21.35;56.43;98154.69;10361493;28;20229;-65
2023/06/28 08:20:08;;;;;;;5.15;3.50;;;20.20;98.30;;;21.71;53.69;98153.66;10353471;28;20619;-65
2023/06/28 08:25:11;;;;;;;5.07;3.50;;;20.50;96.00;;;21.91;52.16;98151.38;10358057;28;20341;-65
2023/06/28 08:30:16;;;;;;;3.83;3.15;;;20.70;94.80;;;22.18;50.24;98145.81;10355450;28;20237;-65
2023/06/28 08:35:19;;;;;;;3.55;3.22;;;21.00;93.10;;;22.66;48.99;98153.47;10353621;28;21086;-68
2023/06/28 08:40:24;;;;;;;4.38;2.90;;;21.30;92.30;;;23.18;46.29;98155.91;10347718;28;20301;-66
2023/06/28 08:45:32;;;;;;;3.75;2.53;;;21.90;89.90;;;23.48;45.28;98146.66;10359240;28;20234;-66
2023/06/28 08:50:39;;;;;;;3.50;3.20;;;22.10;87.80;;;23.88;44.56;98140.09;10350884;28;20230;-67
2023/06/28 08:55:43;;;;;;;4.28;2.70;;;22.70;86.40;;;24.81;42.42;98133.78;10349073;28;20226;-65
2023/06/28 09:00:48;;;;;;;3.25;2.80;;;23.60;83.10;;;25.00;41.76;98130.38;10345161;28;20972;-65
2023/06/28 09:05:53;;;;;;;4.07;2.63;;;24.00;80.70;;;25.58;38.20;98122.75;10353563;28;20230;-65
2023/06/28 09:10:57;;;;;;;3.55;2.50;;;24.60;74.60;;;25.84;36.94;98125.44;10350147;28;20234;-66
2023/06/28 09:16:02;;;;;;;3.80;2.55;;;24.90;70.80;;;26.05;36.68;98121.91;10348919;28;20683;-66
2023/06/28 09:21:05;;;;;;;3.75;2.28;;;25.20;70.80;;;26.23;36.21;98123.66;10350455;28;20265;-67
2023/06/28 09:26:11;;;;;;;3.78;2.50;;;25.20;70.20;;;26.34;36.32;98123.63;10352303;28;20226;-67
2023/06/28 09:31:19;;;;;;;4.70;2.67;;;25.40;70.00;;;26.22;36.99;98119.28;10350279;28;20229;-68
2023/06/28 09:36:24;;;;;;;2.85;2.60;;;25.30;70.90;;;26.77;36.00;98117.47;10353561;28;20237;-67
2023/06/28 09:41:38;;;;;;;3.55;2.47;;;26.00;69.10;;;26.62;35.53;98115.75;10350473;28;20740;-66
2023/06/28 09:46:46;;;;;;;3.40;2.50;;;26.00;68.10;;;26.73;35.14;98117.47;10351908;28;20665;-66
2023/06/28 09:51:59;;;;;;;3.38;2.60;;;26.00;66.50;;;26.94;34.38;98111.25;10352666;28;20321;-67
2023/06/28 09:57:03;;;;;;;3.65;2.30;;;26.20;65.90;;;26.93;33.82;98109.53;10344135;28;20234;-65
2023/06/28 10:02:09;;;;;;;4.82;2.70;;;26.30;64.60;;;26.94;33.46;98105.16;10341984;28;20297;-66
2023/06/28 10:07:14;;;;;;;4.20;2.60;;;26.10;63.90;;;27.57;32.19;98099.56;10343322;28;20328;-66
2023/06/28 10:12:21;;;;;;;3.53;2.50;;;27.00;62.30;;;27.48;32.82;98092.63;10344355;28;20222;-68
2023/06/28 10:17:28;;;;;;;2.85;2.20;;;26.50;63.30;;;27.12;33.32;98088.44;10347845;28;20622;-67
2023/06/28 10:22:32;;;;;;;4.05;2.80;;;25.90;64.40;;;26.96;34.47;98093.75;10346675;28;20590;-68
2023/06/28 10:27:36;;;;;;;4.18;3.00;;;25.60;66.70;;;26.57;34.90;98093.91;10349898;28;20233;-66
2023/06/28 10:32:45;;;;;;;2.95;2.63;;;25.10;67.50;;;25.96;35.97;98093.13;10350262;28;20226;-67
2023/06/28 10:37:48;;;;;;;2.75;2.40;;;24.60;69.50;;;25.71;36.37;98088.72;10345862;28;20236;-68
2023/06/28 10:42:53;;;;;;;3.03;2.58;;;24.20;70.20;;;25.94;36.80;98084.38;10343938;28;20254;-66
2023/06/28 10:47:57;;;;;;;4.55;2.83;;;25.00;68.70;;;26.26;36.34;98079.09;10341766;28;20241;-66
2023/06/28 10:53:00;;;;;;;4.93;2.30;;;25.40;68.10;;;26.60;34.92;98080.78;10347242;28;20230;-65
2023/06/28 10:58:05;;;;;;;4.80;2.80;;;25.80;66.10;;;26.49;35.71;98078.16;10352753;28;20222;-67
2023/06/28 11:03:10;;;;;;;4.57;2.90;;;25.40;67.50;;;25.98;36.17;98074.75;10358677;28;20754;-67
2023/06/28 11:08:15;;;;;;;4.10;2.53;;;24.70;68.80;;;25.70;36.71;98066.91;10356343;28;20237;-66
2023/06/28 11:13:33;;;;;;;3.42;2.35;;;24.40;69.40;;;25.83;36.53;98063.41;10352202;28;20222;-66
2023/06/28 11:18:38;;;;;;;3.88;2.72;;;24.90;68.80;;;25.96;35.78;98059.06;10355898;28;20226;-68
2023/06/28 11:23:44;;;;;;;3.13;2.40;;;25.10;66.90;;;26.16;34.89;98060.78;10359178;28;20222;-66
2023/06/28 11:28:50;;;;;;;4.55;2.40;;;25.40;65.70;;;26.04;35.11;98051.16;10351732;28;20228;-67
2023/06/28 11:33:55;;;;;;;3.17;2.50;;;25.00;66.50;;;25.66;36.28;98056.41;10358859;28;20256;-66
2023/06/28 11:38:59;;;;;;;4.18;2.53;;;24.70;67.90;;;25.77;35.41;98063.38;10355610;28;20257;-67
2023/06/28 11:44:04;;;;;;;4.25;2.60;;;25.00;66.30;;;26.40;34.73;98065.09;10356726;28;20222;-67
2023/06/28 11:49:09;;;;;;;3.78;2.40;;;25.40;65.90;;;26.62;34.37;98066.78;10358011;28;20296;-66
2023/06/28 11:54:13;;;;;;;4.68;2.55;;;25.70;64.80;;;26.60;33.75;98062.44;10358562;28;20332;-66
2023/06/28 11:59:17;;;;;;;2.63;2.00;;;25.60;63.50;;;26.74;33.90;98071.13;10354264;28;20241;-67
2023/06/28 12:04:23;;;;;;;3.80;2.60;;;25.70;64.20;;;26.55;34.60;98066.81;10357818;28;20369;-67
2023/06/28 12:09:28;;;;;;;2.70;2.20;;;25.50;65.20;;;26.80;33.95;98060.59;10352431;28;20230;-67
2023/06/28 12:14:39;;;;;;;3.08;2.38;;;25.90;63.80;;;27.02;33.46;98060.50;10354994;28;20225;-66
2023/06/28 12:19:45;;;;;;;3.22;2.30;;;26.10;63.40;;;27.35;33.16;98052.44;10355848;28;20230;-66
2023/06/28 12:24:48;;;;;;;5.50;2.10;;;26.30;63.10;;;27.20;32.35;98049.91;10355745;28;20221;-67
2023/06/28 12:29:51;;;;;;;2.20;2.00;;;26.30;61.40;;;27.53;32.42;98050.59;10356291;28;20226;-66
2023/06/28 12:34:56;;;;;;;3.25;2.05;;;27.00;61.00;;;27.17;31.74;98042.06;10352548;28;20233;-67
2023/06/28 12:40:05;;;;;;;2.88;2.05;;;26.20;61.00;;;26.79;32.91;98035.25;10353446;28;20226;-66
2023/06/28 12:45:12;;;;;;;2.53;2.22;;;25.70;62.30;;;26.36;34.16;98045.00;10354650;28;20305;-66
2023/06/28 12:50:17;;;;;;;2.92;2.20;;;25.30;64.10;;;26.33;34.04;98043.25;10352547;28;20232;-66
2023/06/28 12:55:20;;;;;;;2.30;2.10;;;25.40;63.90;;;26.27;34.45;98036.28;10355178;28;20244;-67
2023/06/28 13:00:23;;;;;;;2.25;1.83;;;25.30;64.60;;;26.17;34.78;98021.44;10344397;28;20230;-66
2023/06/28 13:05:28;;;;;;;1.92;1.83;;;25.30;64.60;;;26.16;34.97;98026.72;10346256;28;20226;-66
2023/06/28 13:10:31;;;;;;;2.60;2.03;;;25.20;64.70;;;25.99;34.71;98027.59;10353685;28;20321;-66
2023/06/28 13:15:34;;;;;;;3.03;2.25;;;24.90;65.10;;;25.91;35.12;98021.50;10356708;28;20247;-66
2023/06/28 13:20:39;;;;;;;3.10;2.70;;;24.80;65.80;;;25.63;35.91;98018.88;10358664;28;20229;-66
2023/06/28 13:25:42;;;;;;;2.50;2.05;;;24.70;66.40;;;25.90;34.50;98004.06;10358303;28;20253;-67
2023/06/28 13:30:46;;;;;;;2.53;2.10;;;24.80;64.30;;;25.93;34.19;98005.81;10351630;28;20327;-67
2023/06/28 13:35:50;;;;;;;2.17;1.90;;;24.90;64.70;;;25.95;34.73;98004.03;10354174;28;20284;-67
2023/06/28 13:40:53;;;;;;;3.25;2.22;;;24.90;64.40;;;25.95;34.88;97991.78;10354550;28;20605;-67
2023/06/28 13:45:56;;;;;;;3.22;2.05;;;24.90;64.90;;;26.14;34.04;97995.25;10355849;28;20233;-66
2023/06/28 13:51:01;;;;;;;2.75;2.00;;;24.90;64.50;;;26.19;33.34;97990.88;10348434;28;20222;-67
2023/06/28 13:56:05;;;;;;;3.10;2.03;;;25.20;62.50;;;26.11;33.57;97983.91;10351545;28;20230;-66
2023/06/28 14:01:08;;;;;;;2.25;2.00;;;25.20;62.50;;;25.98;33.90;97977.81;10354324;28;20268;-66
2023/06/28 14:06:12;;;;;;;2.20;2.00;;;25.10;63.10;;;26.42;33.14;97977.69;10349140;28;20241;-66
2023/06/28 14:11:15;;;;;;;3.13;1.98;;;25.50;61.80;;;26.33;33.34;97979.50;10344859;28;20260;-66
2023/06/28 14:16:19;;;;;;;3.17;1.90;;;25.50;61.80;;;26.52;32.75;97971.53;10335166;28;20291;-65
2023/06/28 14:21:23;;;;;;;2.30;1.85;;;25.60;61.10;;;26.40;32.89;97966.34;10348158;28;20637;-66
2023/06/28 14:26:26;;;;;;;3.15;1.88;;;25.50;61.80;;;26.27;34.00;97964.66;10334359;28;20222;-67
2023/06/28 14:31:30;;;;;;;4.30;1.90;;;25.40;62.90;;;26.07;33.33;97967.34;10345923;28;20226;-66
2023/06/28 14:36:34;;;;;;;2.70;1.85;;;25.20;62.30;;;26.01;33.56;97972.56;10354645;28;20226;-66
2023/06/28 14:41:37;;;;;;;3.55;1.80;;;25.10;63.40;;;25.95;33.73;97968.22;10350072;28;20614;-67
2023/06/28 14:46:41;;;;;;;2.65;1.73;;;25.10;63.30;;;26.26;33.38;97962.88;10354891;28;20226;-67
2023/06/28 14:51:45;;;;;;;3.75;2.17;;;25.40;61.80;;;26.52;33.03;97950.56;10349458;28;20631;-66
2023/06/28 14:56:48;;;;;;;4.55;1.90;;;25.70;61.60;;;26.88;32.24;97951.25;10345359;28;20698;-66
2023/06/28 15:01:51;;;;;;;2.53;1.65;;;25.80;61.00;;;26.82;32.31;97948.66;10348845;28;20238;-66
2023/06/28 15:06:56;;;;;;;2.25;1.80;;;25.90;60.50;;;26.85;31.52;97948.66;10344331;28;20245;-66
2023/06/28 15:11:59;;;;;;;1.75;1.50;;;25.90;59.70;;;26.98;30.57;97938.94;10349274;28;20710;-67
2023/06/28 15:17:02;;;;;;;2.28;1.50;;;26.00;58.20;;;27.08;31.41;97934.50;10345496;28;20233;-66
2023/06/28 15:22:07;;;;;;;1.98;1.50;;;26.10;59.40;;;27.26;31.33;97925.63;10350672;28;20730;-66
2023/06/28 15:27:10;;;;;;;1.90;1.48;;;26.40;59.40;;;27.57;30.05;97928.84;10348904;28;20708;-66
2023/06/28 15:32:13;;;;;;;2.42;1.80;;;26.60;58.20;;;27.54;30.22;97926.25;10355518;28;20410;-66
2023/06/28 15:37:18;;;;;;;2.03;1.60;;;26.50;58.20;;;27.38;30.48;97931.63;10348888;28;20234;-66
2023/06/28 15:42:21;;;;;;;2.15;1.38;;;26.50;58.10;;;27.24;30.75;97919.50;10350253;28;20605;-67
2023/06/28 15:47:24;;;;;;;2.22;1.40;;;26.40;58.60;;;27.00;30.90;97917.94;10350012;28;20714;-66
2023/06/28 15:52:29;;;;;;;1.88;1.60;;;26.10;58.40;;;27.02;30.37;97926.69;10354312;28;20320;-67
2023/06/28 15:57:33;;;;;;;3.75;1.70;;;26.10;57.80;;;27.02;30.41;97927.53;10348006;28;20237;-67
2023/06/28 16:02:36;;;;;;;2.17;1.60;;;26.20;58.10;;;26.88;30.89;97927.63;10348389;28;20230;-67
2023/06/28 16:07:41;;;;;;;2.65;1.70;;;26.00;58.50;;;26.65;31.23;97919.91;10350047;28;20650;-67
2023/06/28 16:12:44;;;;;;;1.95;1.63;;;25.90;58.70;;;26.70;30.91;97922.53;10348311;28;20234;-67
2023/06/28 16:17:47;;;;;;;2.03;1.42;;;25.90;58.50;;;26.82;31.06;97927.69;10359756;28;20649;-67
2023/06/28 16:22:52;;;;;;;2.55;1.80;;;25.90;58.80;;;26.76;31.28;97921.63;10355388;28;20244;-66
2023/06/28 16:27:57;;;;;;;1.90;1.50;;;25.80;58.70;;;26.97;30.72;97905.72;10356410;28;20735;-65
2023/06/28 16:33:06;;;;;;;1.83;1.60;;;26.00;57.90;;;27.08;30.47;97914.38;10356684;28;20229;-68
2023/06/28 16:38:10;;;;;;;2.22;1.60;;;26.20;58.00;;;26.84;30.16;97915.44;10354030;28;20234;-67
2023/06/28 16:43:13;;;;;;;2.33;1.67;;;25.90;57.40;;;26.95;30.58;97915.34;10358743;28;20503;-66
2023/06/28 16:48:17;;;;;;;1.58;1.45;;;25.90;58.20;;;26.66;30.63;97920.78;10354028;28;20248;-66
2023/06/28 16:53:21;;;;;;;1.63;1.52;;;25.70;58.00;;;26.49;31.34;97919.09;10348543;28;20222;-65
2023/06/28 16:58:24;;;;;;;2.85;1.70;;;25.40;59.30;;;26.16;32.24;97914.03;10352522;28;20232;-65
2023/06/28 17:03:28;;;;;;;3.13;1.88;;;25.20;60.00;;;26.05;33.02;97912.31;10349877;28;20226;-65
2023/06/28 17:08:32;;;;;;;2.33;1.90;;;25.10;60.70;;;25.84;33.75;97915.03;10344935;28;20340;-65
2023/06/28 17:13:36;;;;;;;2.85;1.73;;;25.00;61.30;;;25.87;33.53;97925.50;10350885;28;20241;-65
2023/06/28 17:18:39;;;;;;;3.38;1.90;;;24.90;61.40;;;26.00;33.56;97919.31;10338135;28;20656;-65
2023/06/28 17:23:43;;;;;;;2.30;2.05;;;25.10;62.00;;;26.02;33.82;97920.19;10348998;28;20228;-65
2023/06/28 17:28:46;;;;;;;2.38;1.90;;;25.00;62.00;;;26.18;33.73;97922.75;10349115;28;20218;-65
2023/06/28 17:33:50;;;;;;;3.78;1.80;;;25.10;62.10;;;26.05;33.84;97925.41;10343489;28;20226;-65
2023/06/28 17:38:55;;;;;;;2.47;2.00;;;25.10;62.60;;;26.13;33.55;97927.16;10342114;28;20672;-65
2023/06/28 17:43:58;;;;;;;2.60;2.15;;;25.10;62.10;;;25.86;34.38;97934.19;10341944;28;21701;-65
2023/06/28 17:49:01;;;;;;;2.95;2.10;;;24.90;62.60;;;25.92;34.11;97936.78;10349696;28;20234;-65
2023/06/28 17:54:05;;;;;;;3.25;2.30;;;24.90;63.00;;;25.62;35.04;97935.97;10343853;28;20886;-66
2023/06/28 17:59:08;;;;;;;3.75;2.20;;;24.70;63.70;;;25.39;36.01;97940.38;10341315;28;20236;-65
2023/06/28 18:04:11;;;;;;;2.17;2.08;;;24.50;65.50;;;25.19;35.87;97934.25;10343053;28;20230;-65
2023/06/28 18:09:16;;;;;;;2.30;2.10;;;24.20;65.10;;;25.00;36.18;97926.34;10348566;28;20449;-65
2023/06/28 18:14:19;;;;;;;3.05;2.55;;;24.10;65.70;;;24.86;37.03;97936.81;10355975;28;20233;-65
2023/06/28 18:19:22;;;;;;;2.42;2.25;;;23.90;66.70;;;24.74;37.12;97936.78;10355117;28;20234;-65
2023/06/28 18:24:26;;;;;;;2.72;2.13;;;23.80;67.40;;;24.59;37.41;97942.88;10345052;28;20608;-65
2023/06/28 18:29:30;;;;;;;2.55;2.30;;;23.60;67.20;;;24.45;37.63;97941.94;10352991;28;20786;-64
2023/06/28 18:34:33;;;;;;;2.10;1.90;;;23.50;67.80;;;24.33;37.80;97947.09;10354664;28;20462;-65
2023/06/28 18:39:37;;;;;;;2.80;2.30;;;23.40;68.70;;;24.20;38.44;97949.66;10351279;28;20238;-65
2023/06/28 18:44:40;;;;;;;2.40;2.20;;;23.20;69.10;;;24.05;38.99;97937.41;10350305;28;20234;-65
2023/06/28 18:49:43;;;;;;;2.78;2.13;;;23.10;70.40;;;23.91;39.93;97946.03;10352963;28;20246;-65
2023/06/28 18:54:48;;;;;;;2.65;2.42;;;22.90;71.60;;;23.73;40.33;97949.41;10347768;28;20233;-64
2023/06/28 18:59:51;;;;;;;2.72;2.30;;;22.80;72.60;;;23.54;40.72;97949.25;10344508;28;20584;-65
2023/06/28 19:04:54;;;;;;;2.33;2.13;;;22.60;72.70;;;23.42;41.10;97950.91;10350095;28;20230;-65
2023/06/28 19:10:00;;;;;;;3.42;2.40;;;22.40;73.70;;;23.27;41.66;97949.91;10345730;28;20397;-65
2023/06/28 19:15:04;;;;;;;2.85;2.40;;;22.30;74.30;;;23.12;42.66;97962.81;10353884;28;20230;-65
2023/06/28 19:20:10;;;;;;;2.55;2.35;;;22.10;76.00;;;22.92;43.07;97957.38;10354943;28;20231;-64
2023/06/28 19:25:14;;;;;;;3.72;2.85;;;21.90;76.50;;;22.73;44.88;97965.91;10345128;28;20245;-65
2023/06/28 19:30:17;;;;;;;3.47;2.83;;;21.70;79.30;;;22.56;45.88;97973.53;10354615;28;20709;-64
2023/06/28 19:35:21;;;;;;;3.05;2.70;;;21.50;80.80;;;22.36;46.18;97976.75;10350910;28;20469;-64
2023/06/28 19:40:26;;;;;;;2.80;2.60;;;21.30;81.30;;;22.23;46.27;97993.97;10350397;28;20683;-65
2023/06/28 19:45:29;;;;;;;3.42;2.90;;;21.20;80.90;;;22.03;46.40;97997.97;10348983;28;20744;-65
2023/06/28 19:50:33;;;;;;;3.30;2.83;;;21.00;81.90;;;21.82;46.88;97994.22;10345821;28;20718;-65
2023/06/28 19:55:38;;;;;;;3.13;2.90;;;20.70;82.40;;;21.68;47.31;98000.06;10348317;28;20230;-64
2023/06/28 20:00:41;;;;;;;4.30;2.72;;;20.60;84.20;;;21.51;48.52;98005.88;10351392;28;20222;-65
2023/06/28 20:05:44;;;;;;;3.30;2.97;;;20.40;85.40;;;21.34;49.12;98005.56;10373690;22;20654;-66
2023/06/28 20:10:49;;;;;;;3.25;2.50;;;20.30;86.90;;;21.18;49.69;98005.31;10355867;28;20230;-65
2023/06/28 20:15:52;;;;;;;3.10;2.80;;;20.10;87.40;;;20.90;50.25;98012.59;10356323;28;20238;-66
2023/06/28 20:20:55;;;;;;;3.53;3.10;;;19.80;88.40;;;20.77;51.12;98015.81;10360123;28;20237;-64
2023/06/28 20:25:59;;;;;;;3.60;2.83;;;19.70;89.60;;;20.60;51.37;98024.16;10354616;28;20247;-65
2023/06/28 20:31:02;;;;;;;4.90;3.55;;;19.60;90.00;;;20.55;51.99;98018.00;10354472;28;20237;-64
2023/06/28 20:36:06;;;;;;;3.33;2.83;;;19.50;90.50;;;20.46;52.41;98020.38;10356211;28;20271;-66
2023/06/28 20:41:11;;;;;;;3.00;2.72;;;19.40;90.70;;;20.30;53.09;98018.28;10358047;28;20226;-65
2023/06/28 20:46:14;;;;;;;3.03;2.80;;;19.30;91.30;;;20.10;53.82;98026.53;10359437;28;20236;-64
2023/06/28 20:51:17;;;;;;;4.75;3.30;;;19.10;92.10;;;19.95;55.00;98018.41;10358910;28;20222;-65
2023/06/28 20:56:21;;;;;;;3.47;2.70;;;18.90;92.90;;;19.72;54.21;98021.34;10353147;28;20694;-66
2023/06/28 21:01:26;;;;;;;3.17;2.97;;;18.70;92.50;;;19.64;54.94;98025.44;10356219;28;20232;-65
2023/06/28 21:06:29;;;;;;;3.28;2.97;;;18.60;93.10;;;19.57;55.69;98023.50;10355372;28;20230;-65